createdAt,value
2022-12-11T00:00:03.106Z,12.40
2022-12-11T00:00:34.726Z,13.32
2022-12-11T00:01:14.650Z,12.60
2022-12-11T00:01:46.288Z,11.48
2022-12-11T00:02:18.368Z,12.15
2022-12-11T00:02:50.039Z,13.25
2022-12-11T00:03:21.763Z,12.57
2022-12-11T00:03:53.427Z,12.07
2022-12-11T00:04:25.046Z,12.27
2022-12-11T00:04:56.693Z,12.05
2022-12-11T00:05:28.258Z,12.40
2022-12-11T00:05:59.831Z,12.25
2022-12-11T00:06:31.422Z,11.55
2022-12-11T00:07:03.079Z,12.50
2022-12-11T00:07:34.683Z,12.20
2022-12-11T00:08:06.535Z,12.07
2022-12-11T00:08:38.390Z,12.30
2022-12-11T00:09:09.990Z,12.55
2022-12-11T00:09:41.550Z,11.77
2022-12-11T00:10:13.162Z,12.10
2022-12-11T00:10:49.778Z,12.95
2022-12-11T00:11:22.846Z,12.95
2022-12-11T00:11:54.420Z,11.77
2022-12-11T00:12:26.114Z,11.55
2022-12-11T00:12:57.790Z,12.23
2022-12-11T00:13:29.674Z,12.75
2022-12-11T00:14:01.275Z,12.50
2022-12-11T00:14:33.358Z,12.77
2022-12-11T00:15:05.267Z,12.52
2022-12-11T00:15:38.410Z,12.68
2022-12-11T00:16:10.786Z,12.00
2022-12-11T00:16:42.795Z,12.68
2022-12-11T00:17:14.415Z,12.32
2022-12-11T00:17:46.015Z,12.63
2022-12-11T00:18:17.640Z,12.15
2022-12-11T00:18:49.194Z,12.07
2022-12-11T00:19:20.967Z,12.30
2022-12-11T00:19:52.567Z,13.15
2022-12-11T00:20:24.292Z,12.07
2022-12-11T00:20:55.898Z,11.38
2022-12-11T00:21:27.630Z,12.13
2022-12-11T00:21:59.182Z,12.32
2022-12-11T00:22:31.019Z,11.82
2022-12-11T00:23:04.524Z,12.20
2022-12-11T00:23:36.870Z,11.75
2022-12-11T00:24:08.540Z,11.90
2022-12-11T00:24:40.122Z,11.50
2022-12-11T00:25:11.982Z,11.80
2022-12-11T00:25:47.885Z,12.05
2022-12-11T00:26:19.768Z,11.65
2022-12-11T00:26:51.422Z,11.10
2022-12-11T00:27:23.017Z,12.00
2022-12-11T00:27:54.601Z,11.07
2022-12-11T00:28:26.249Z,11.30
2022-12-11T00:28:57.896Z,11.05
2022-12-11T00:29:29.442Z,11.88
2022-12-11T00:30:01.029Z,12.02
2022-12-11T00:30:32.614Z,10.90
2022-12-11T00:31:09.389Z,11.18
2022-12-11T00:31:42.366Z,11.02
2022-12-11T00:32:14.031Z,11.90
2022-12-11T00:32:45.721Z,10.18
2022-12-11T00:33:17.556Z,10.70
2022-12-11T00:33:50.210Z,11.05
2022-12-11T00:34:21.786Z,11.40
2022-12-11T00:34:53.423Z,11.32
2022-12-11T00:35:24.999Z,10.55
2022-12-11T00:35:56.556Z,10.82
2022-12-11T00:36:28.305Z,10.60
2022-12-11T00:36:59.987Z,10.00
2022-12-11T00:37:31.791Z,10.77
2022-12-11T00:38:03.494Z,11.32
2022-12-11T00:38:35.103Z,10.75
2022-12-11T00:39:06.910Z,11.15
2022-12-11T00:39:39.907Z,9.93
2022-12-11T00:40:11.742Z,11.32
2022-12-11T00:40:44.134Z,10.70
2022-12-11T00:41:16.294Z,10.20
2022-12-11T00:41:47.982Z,9.93
2022-12-11T00:42:19.598Z,11.23
2022-12-11T00:42:51.163Z,11.30
2022-12-11T00:43:22.727Z,11.35
2022-12-11T00:43:54.372Z,11.10
2022-12-11T00:44:25.980Z,11.38
2022-12-11T00:44:57.946Z,10.52
2022-12-11T00:45:29.680Z,10.93
2022-12-11T00:46:02.866Z,10.93
2022-12-11T00:46:34.571Z,10.73
2022-12-11T00:47:06.181Z,10.82
2022-12-11T00:47:37.755Z,11.55
2022-12-11T00:48:10.419Z,10.90
2022-12-11T00:48:42.033Z,10.38
2022-12-11T00:49:13.628Z,10.65
2022-12-11T00:49:49.619Z,9.98
2022-12-11T00:50:21.771Z,9.80
2022-12-11T00:50:53.442Z,10.98
2022-12-11T00:51:26.150Z,10.30
2022-12-11T00:51:57.792Z,10.65
2022-12-11T00:52:29.411Z,11.18
2022-12-11T00:53:01.507Z,10.75
2022-12-11T00:53:33.116Z,10.70
2022-12-11T00:54:04.889Z,11.80
2022-12-11T00:54:36.491Z,10.50
2022-12-11T00:55:08.407Z,10.70
2022-12-11T00:55:41.739Z,10.70
2022-12-11T00:56:19.109Z,10.57
2022-12-11T00:56:50.959Z,10.02
2022-12-11T00:57:22.562Z,10.02
2022-12-11T00:57:54.846Z,10.02
2022-12-11T00:58:26.493Z,10.70
2022-12-11T00:58:58.282Z,10.80
2022-12-11T00:59:29.964Z,10.10
2022-12-11T01:00:01.538Z,10.10
2022-12-11T01:00:33.229Z,10.55
2022-12-11T01:01:13.708Z,10.95
2022-12-11T01:01:45.359Z,10.50
2022-12-11T01:02:16.923Z,10.55
2022-12-11T01:02:49.291Z,11.50
2022-12-11T01:03:20.983Z,10.43
2022-12-11T01:03:53.585Z,11.25
2022-12-11T01:04:25.150Z,9.43
2022-12-11T01:04:56.698Z,10.70
2022-12-11T01:05:28.574Z,10.70
2022-12-11T01:06:00.171Z,11.02
2022-12-11T01:06:31.829Z,10.15
2022-12-11T01:07:03.534Z,10.07
2022-12-11T01:07:35.099Z,9.38
2022-12-11T01:08:06.799Z,10.07
2022-12-11T01:08:38.975Z,9.82
2022-12-11T01:09:29.182Z,9.73
2022-12-11T01:10:19.712Z,10.10
2022-12-11T01:10:51.403Z,9.73
2022-12-11T01:11:23.014Z,9.43
2022-12-11T01:11:54.619Z,9.68
2022-12-11T01:12:28.536Z,10.25
2022-12-11T01:13:03.062Z,10.40
2022-12-11T01:13:34.955Z,9.32
2022-12-11T01:14:07.142Z,10.18
2022-12-11T01:14:38.786Z,10.60
2022-12-11T01:15:12.116Z,10.30
2022-12-11T01:15:45.550Z,10.02
2022-12-11T01:16:17.163Z,9.55
2022-12-11T01:16:48.849Z,9.80
2022-12-11T01:17:20.494Z,10.35
2022-12-11T01:17:52.677Z,10.35
2022-12-11T01:18:24.590Z,9.82
2022-12-11T01:18:57.547Z,10.20
2022-12-11T01:19:29.202Z,9.60
2022-12-11T01:20:00.834Z,9.52
2022-12-11T01:20:33.118Z,9.68
2022-12-11T01:21:10.348Z,9.60
2022-12-11T01:21:41.987Z,9.75
2022-12-11T01:22:13.538Z,9.52
2022-12-11T01:22:45.498Z,9.65
2022-12-11T01:23:17.623Z,9.70
2022-12-11T01:23:50.683Z,10.00
2022-12-11T01:24:22.272Z,10.05
2022-12-11T01:24:53.830Z,9.50
2022-12-11T01:25:27.619Z,9.43
2022-12-11T01:26:08.501Z,9.43
2022-12-11T01:26:40.070Z,9.80
2022-12-11T01:27:11.639Z,9.60
2022-12-11T01:27:43.201Z,9.35
2022-12-11T01:28:14.832Z,9.35
2022-12-11T01:28:49.884Z,9.57
2022-12-11T01:29:21.442Z,9.52
2022-12-11T01:29:53.044Z,9.45
2022-12-11T01:30:25.722Z,8.75
2022-12-11T01:30:57.484Z,9.40
2022-12-11T01:31:29.506Z,9.95
2022-12-11T01:32:01.197Z,9.18
2022-12-11T01:32:33.050Z,9.48
2022-12-11T01:33:04.891Z,9.43
2022-12-11T01:33:36.574Z,9.80
2022-12-11T01:34:08.141Z,9.55
2022-12-11T01:34:39.777Z,9.75
2022-12-11T01:35:12.428Z,9.30
2022-12-11T01:35:44.394Z,9.13
2022-12-11T01:36:19.596Z,9.90
2022-12-11T01:36:52.455Z,8.95
2022-12-11T01:37:24.020Z,9.10
2022-12-11T01:37:56.010Z,10.52
2022-12-11T01:38:27.607Z,9.15
2022-12-11T01:38:59.267Z,8.95
2022-12-11T01:39:30.932Z,9.70
2022-12-11T01:40:04.133Z,9.55
2022-12-11T01:40:35.733Z,9.20
2022-12-11T01:41:08.186Z,9.02
2022-12-11T01:41:39.848Z,9.52
2022-12-11T01:42:17.931Z,8.70
2022-12-11T01:42:49.574Z,8.98
2022-12-11T01:43:21.231Z,8.57
2022-12-11T01:44:06.747Z,8.80
2022-12-11T01:44:38.270Z,8.40
2022-12-11T01:45:22.507Z,9.00
2022-12-11T01:45:55.480Z,8.68
2022-12-11T01:46:28.680Z,8.68
2022-12-11T01:47:00.935Z,7.85
2022-12-11T01:47:32.554Z,8.60
2022-12-11T01:48:08.823Z,8.30
2022-12-11T01:48:42.332Z,8.40
2022-12-11T01:49:17.468Z,8.65
2022-12-11T01:49:49.079Z,8.35
2022-12-11T01:50:20.796Z,8.38
2022-12-11T01:50:56.433Z,7.63
2022-12-11T01:51:31.054Z,8.30
2022-12-11T01:52:09.619Z,8.63
2022-12-11T01:52:42.877Z,9.05
2022-12-11T01:53:19.959Z,8.27
2022-12-11T01:54:06.104Z,8.15
2022-12-11T01:54:37.735Z,8.82
2022-12-11T01:55:10.310Z,8.63
2022-12-11T01:55:42.390Z,8.27
2022-12-11T01:56:14.806Z,9.15
2022-12-11T01:56:48.110Z,9.15
2022-12-11T01:57:19.723Z,8.48
2022-12-11T01:57:52.898Z,8.52
2022-12-11T01:58:28.809Z,8.13
2022-12-11T01:59:07.328Z,8.40
2022-12-11T01:59:41.624Z,8.63
2022-12-11T02:00:13.761Z,8.82
2022-12-11T02:01:43.066Z,8.45
2022-12-11T02:02:22.020Z,8.48
2022-12-11T02:02:53.638Z,8.57
2022-12-11T02:03:25.217Z,8.55
2022-12-11T02:03:57.211Z,8.50
2022-12-11T02:04:29.595Z,8.57
2022-12-11T02:05:06.957Z,9.15
2022-12-11T02:05:38.929Z,8.52
2022-12-11T02:06:31.238Z,9.07
2022-12-11T02:07:03.695Z,8.30
2022-12-11T02:07:46.448Z,8.77
2022-12-11T02:08:18.607Z,8.07
2022-12-11T02:08:50.227Z,8.70
2022-12-11T02:09:25.594Z,8.55
2022-12-11T02:09:57.245Z,8.82
2022-12-11T02:10:43.650Z,9.05
2022-12-11T02:11:23.874Z,8.02
2022-12-11T02:12:31.732Z,8.30
2022-12-11T02:13:26.483Z,7.82
2022-12-11T02:14:04.817Z,7.82
2022-12-11T02:14:45.104Z,7.55
2022-12-11T02:15:41.150Z,7.90
2022-12-11T02:16:25.653Z,8.38
2022-12-11T02:17:23.152Z,7.80
2022-12-11T02:18:20.187Z,7.50
2022-12-11T02:19:08.108Z,8.05
2022-12-11T02:19:46.055Z,7.90
2022-12-11T02:20:27.323Z,7.80
2022-12-11T02:21:39.398Z,8.82
2022-12-11T02:22:18.619Z,7.93
2022-12-11T02:23:17.011Z,7.85
2022-12-11T02:24:17.779Z,7.95
2022-12-11T02:25:11.122Z,8.13
2022-12-11T02:26:01.582Z,8.70
2022-12-11T02:26:55.759Z,8.25
2022-12-11T02:27:41.243Z,8.10
2022-12-11T02:28:24.180Z,7.68
2022-12-11T02:29:07.472Z,8.35
2022-12-11T02:30:08.759Z,8.90
2022-12-11T02:30:43.035Z,8.90
2022-12-11T02:31:18.820Z,8.45
2022-12-11T02:31:56.348Z,8.55
2022-12-11T02:32:36.007Z,9.45
2022-12-11T02:33:11.842Z,9.27
2022-12-11T02:34:08.323Z,9.43
2022-12-11T02:34:47.132Z,8.85
2022-12-11T02:35:34.167Z,9.27
2022-12-11T02:36:08.048Z,8.65
2022-12-11T02:36:47.979Z,9.13
2022-12-11T02:37:24.672Z,9.50
2022-12-11T02:38:04.619Z,9.32
2022-12-11T02:38:41.734Z,9.25
2022-12-11T02:39:15.957Z,9.20
2022-12-11T02:39:51.772Z,9.68
2022-12-11T02:40:27.588Z,8.70
2022-12-11T02:41:01.097Z,9.00
2022-12-11T02:41:33.834Z,8.77
2022-12-11T02:42:06.975Z,8.98
2022-12-11T02:42:42.510Z,9.02
2022-12-11T02:43:16.199Z,9.07
2022-12-11T02:43:50.548Z,8.85
2022-12-11T02:44:29.514Z,8.85
2022-12-11T02:45:03.119Z,8.60
2022-12-11T02:45:36.352Z,9.55
2022-12-11T02:46:08.762Z,9.38
2022-12-11T02:46:42.172Z,9.52
2022-12-11T02:47:16.607Z,9.50
2022-12-11T02:47:50.034Z,9.65
2022-12-11T02:48:24.308Z,9.25
2022-12-11T02:48:57.151Z,9.50
2022-12-11T02:49:30.255Z,9.23
2022-12-11T02:50:06.623Z,9.32
2022-12-11T02:50:44.394Z,9.27
2022-12-11T02:51:18.587Z,9.52
2022-12-11T02:51:51.782Z,8.63
2022-12-11T02:52:25.644Z,8.80
2022-12-11T02:52:59.770Z,9.25
2022-12-11T02:53:33.373Z,9.80
2022-12-11T02:54:09.058Z,9.35
2022-12-11T02:54:42.510Z,8.98
2022-12-11T02:55:16.139Z,9.65
2022-12-11T02:55:52.406Z,9.10
2022-12-11T02:56:30.765Z,9.25
2022-12-11T02:57:14.630Z,9.40
2022-12-11T02:57:51.414Z,8.80
2022-12-11T02:58:28.095Z,9.32
2022-12-11T02:59:05.874Z,9.05
2022-12-11T02:59:41.490Z,9.73
2022-12-11T03:00:13.305Z,9.23
2022-12-11T03:00:46.345Z,9.38
2022-12-11T03:01:18.174Z,8.93
2022-12-11T03:01:50.641Z,9.98
2022-12-11T03:02:22.370Z,9.50
2022-12-11T03:02:54.302Z,10.20
2022-12-11T03:03:27.357Z,9.63
2022-12-11T03:03:59.043Z,9.20
2022-12-11T03:04:31.196Z,10.05
2022-12-11T03:05:04.628Z,9.55
2022-12-11T03:05:36.208Z,10.35
2022-12-11T03:06:13.309Z,9.30
2022-12-11T03:06:51.410Z,9.10
2022-12-11T03:07:27.616Z,9.55
2022-12-11T03:07:59.203Z,9.85
2022-12-11T03:08:32.046Z,9.52
2022-12-11T03:09:05.202Z,8.93
2022-12-11T03:09:36.798Z,9.32
2022-12-11T03:10:11.196Z,10.10
2022-12-11T03:10:43.297Z,9.70
2022-12-11T03:11:14.875Z,10.32
2022-12-11T03:11:46.655Z,10.20
2022-12-11T03:12:28.011Z,9.95
2022-12-11T03:13:00.972Z,9.82
2022-12-11T03:13:32.639Z,10.32
2022-12-11T03:14:04.694Z,8.98
2022-12-11T03:14:37.591Z,9.75
2022-12-11T03:15:13.986Z,10.48
2022-12-11T03:16:07.655Z,10.85
2022-12-11T03:16:48.540Z,10.38
2022-12-11T03:17:23.693Z,10.27
2022-12-11T03:18:05.188Z,10.52
2022-12-11T03:18:46.697Z,11.07
2022-12-11T03:19:31.657Z,11.13
2022-12-11T03:20:27.864Z,10.90
2022-12-11T03:21:02.498Z,10.63
2022-12-11T03:21:45.739Z,10.13
2022-12-11T03:22:25.541Z,10.02
2022-12-11T03:23:14.465Z,10.80
2022-12-11T03:24:03.768Z,10.90
2022-12-11T03:24:49.548Z,10.60
2022-12-11T03:25:25.986Z,10.25
2022-12-11T03:26:01.942Z,10.52
2022-12-11T03:26:39.492Z,10.57
2022-12-11T03:27:26.590Z,10.30
2022-12-11T03:28:07.352Z,10.88
2022-12-11T03:28:50.994Z,10.10
2022-12-11T03:30:14.891Z,11.45
2022-12-11T03:30:49.775Z,10.43
2022-12-11T03:31:37.883Z,10.45
2022-12-11T03:32:13.398Z,10.23
2022-12-11T03:32:53.271Z,10.02
2022-12-11T03:33:36.407Z,10.45
2022-12-11T03:34:16.296Z,10.45
2022-12-11T03:35:04.062Z,11.05
2022-12-11T03:35:51.400Z,10.30
2022-12-11T03:36:30.266Z,11.15
2022-12-11T03:37:05.226Z,10.13
2022-12-11T03:37:40.421Z,10.10
2022-12-11T03:38:18.760Z,10.30
2022-12-11T03:38:54.519Z,10.90
2022-12-11T03:39:33.744Z,10.35
2022-12-11T03:40:12.164Z,10.23
2022-12-11T03:40:47.921Z,10.80
2022-12-11T03:41:22.115Z,10.43
2022-12-11T03:41:55.277Z,10.52
2022-12-11T03:42:27.117Z,10.70
2022-12-11T03:42:59.774Z,9.88
2022-12-11T03:43:32.386Z,10.32
2022-12-11T03:44:04.286Z,10.35
2022-12-11T03:44:37.075Z,10.40
2022-12-11T03:45:10.006Z,9.73
2022-12-11T03:45:42.826Z,10.90
2022-12-11T03:46:15.982Z,10.38
2022-12-11T03:46:50.469Z,10.38
2022-12-11T03:47:25.336Z,10.55
2022-12-11T03:47:59.363Z,10.18
2022-12-11T03:48:35.413Z,10.27
2022-12-11T03:49:15.371Z,9.98
2022-12-11T03:49:48.864Z,9.98
2022-12-11T03:50:22.620Z,10.80
2022-12-11T03:50:55.028Z,10.30
2022-12-11T03:51:28.938Z,9.80
2022-12-11T03:52:02.160Z,10.82
2022-12-11T03:52:34.440Z,11.15
2022-12-11T03:53:06.423Z,11.60
2022-12-11T03:53:39.347Z,11.07
2022-12-11T03:54:11.490Z,10.95
2022-12-11T03:54:47.563Z,10.65
2022-12-11T03:55:21.465Z,10.90
2022-12-11T03:55:54.263Z,11.00
2022-12-11T03:56:28.645Z,11.70
2022-12-11T03:57:01.466Z,11.57
2022-12-11T03:57:36.843Z,11.60
2022-12-11T03:58:08.491Z,11.48
2022-12-11T03:58:40.276Z,12.68
2022-12-11T03:59:12.111Z,12.27
2022-12-11T03:59:44.253Z,11.85
2022-12-11T04:00:18.587Z,13.23
2022-12-11T04:00:50.200Z,12.77
2022-12-11T04:01:21.933Z,11.70
2022-12-11T04:01:53.704Z,12.55
2022-12-11T04:02:25.401Z,11.60
2022-12-11T04:03:16.007Z,12.50
2022-12-11T04:03:47.655Z,11.30
2022-12-11T04:04:19.740Z,12.40
2022-12-11T04:04:51.398Z,10.55
2022-12-11T04:05:22.990Z,12.55
2022-12-11T04:05:56.016Z,12.30
2022-12-11T04:06:27.579Z,12.57
2022-12-11T04:06:59.114Z,12.50
2022-12-11T04:07:31.365Z,12.85
2022-12-11T04:08:03.095Z,12.73
2022-12-11T04:08:34.785Z,12.77
2022-12-11T04:09:06.549Z,13.13
2022-12-11T04:09:38.159Z,13.38
2022-12-11T04:10:10.304Z,12.88
2022-12-11T04:10:42.348Z,11.48
2022-12-11T04:11:32.413Z,12.90
2022-12-11T04:12:04.050Z,12.70
2022-12-11T04:12:35.625Z,12.65
2022-12-11T04:13:08.353Z,12.98
2022-12-11T04:13:41.430Z,13.50
2022-12-11T04:14:33.087Z,12.68
2022-12-11T04:15:04.934Z,12.82
2022-12-11T04:15:38.447Z,12.43
2022-12-11T04:16:10.250Z,13.05
2022-12-11T04:16:41.987Z,13.70
2022-12-11T04:17:33.571Z,13.60
2022-12-11T04:18:24.398Z,12.77
2022-12-11T04:19:14.203Z,13.05
2022-12-11T04:20:04.295Z,12.88
2022-12-11T04:20:54.178Z,11.75
2022-12-11T04:21:43.974Z,12.43
2022-12-11T04:22:35.786Z,13.02
2022-12-11T04:23:34.960Z,12.00
2022-12-11T04:24:16.456Z,11.45
2022-12-11T04:24:49.410Z,12.10
2022-12-11T04:25:20.955Z,12.75
2022-12-11T04:25:52.499Z,13.63
2022-12-11T04:26:24.145Z,12.90
2022-12-11T04:26:55.715Z,13.10
2022-12-11T04:27:46.203Z,13.10
2022-12-11T04:28:17.845Z,13.75
2022-12-11T04:28:51.171Z,13.63
2022-12-11T04:29:22.832Z,14.13
2022-12-11T04:29:54.373Z,13.88
2022-12-11T04:30:32.351Z,13.52
2022-12-11T04:31:06.612Z,13.15
2022-12-11T04:31:38.282Z,13.55
2022-12-11T04:32:09.848Z,13.85
2022-12-11T04:32:41.713Z,12.85
2022-12-11T04:33:13.280Z,14.10
2022-12-11T04:33:44.919Z,14.50
2022-12-11T04:34:16.954Z,13.88
2022-12-11T04:34:48.635Z,14.35
2022-12-11T04:35:20.930Z,14.18
2022-12-11T04:35:52.533Z,13.77
2022-12-11T04:36:24.140Z,13.77
2022-12-11T04:36:55.688Z,13.77
2022-12-11T04:37:27.894Z,14.15
2022-12-11T04:37:59.451Z,14.30
2022-12-11T04:38:30.999Z,13.63
2022-12-11T04:39:03.749Z,13.35
2022-12-11T04:39:35.399Z,13.32
2022-12-11T04:40:10.260Z,14.02
2022-12-11T04:40:41.891Z,14.15
2022-12-11T04:41:15.188Z,13.90
2022-12-11T04:41:46.750Z,13.63
2022-12-11T04:42:18.309Z,13.40
2022-12-11T04:42:49.975Z,13.80
2022-12-11T04:43:21.536Z,13.32
2022-12-11T04:43:53.174Z,13.75
2022-12-11T04:44:24.763Z,14.38
2022-12-11T04:44:56.328Z,13.98
2022-12-11T04:45:27.891Z,13.55
2022-12-11T04:46:17.561Z,13.23
2022-12-11T04:46:49.295Z,12.90
2022-12-11T04:47:20.895Z,13.18
2022-12-11T04:47:52.603Z,12.52
2022-12-11T04:48:24.182Z,13.15
2022-12-11T04:48:57.897Z,12.95
2022-12-11T04:49:29.626Z,13.85
2022-12-11T04:50:01.255Z,12.80
2022-12-11T04:50:32.861Z,12.63
2022-12-11T04:51:05.296Z,13.35
2022-12-11T04:51:36.851Z,12.77
2022-12-11T04:52:08.534Z,13.00
2022-12-11T04:52:40.666Z,12.80
2022-12-11T04:53:12.275Z,12.93
2022-12-11T04:53:43.848Z,13.65
2022-12-11T04:54:15.418Z,13.48
2022-12-11T04:54:47.206Z,13.02
2022-12-11T04:55:18.845Z,13.23
2022-12-11T04:55:50.554Z,13.70
2022-12-11T04:56:22.476Z,13.13
2022-12-11T04:56:54.050Z,13.20
2022-12-11T04:57:25.682Z,14.35
2022-12-11T04:57:57.247Z,12.30
2022-12-11T04:58:28.936Z,13.10
2022-12-11T04:59:01.127Z,13.07
2022-12-11T04:59:33.462Z,12.82
2022-12-11T05:00:10.312Z,13.27
2022-12-11T05:00:42.291Z,13.40
2022-12-11T05:01:19.246Z,13.13
2022-12-11T05:01:50.996Z,13.30
2022-12-11T05:02:22.652Z,12.68
2022-12-11T05:02:54.267Z,12.82
2022-12-11T05:03:25.906Z,12.82
2022-12-11T05:03:59.721Z,12.73
2022-12-11T05:04:33.152Z,13.32
2022-12-11T05:05:06.539Z,13.32
2022-12-11T05:05:38.198Z,13.05
2022-12-11T05:06:11.182Z,13.02
2022-12-11T05:06:42.812Z,12.77
2022-12-11T05:07:14.366Z,12.18
2022-12-11T05:07:46.060Z,11.90
2022-12-11T05:08:18.561Z,12.18
2022-12-11T05:08:50.331Z,12.38
2022-12-11T05:09:21.977Z,12.45
2022-12-11T05:09:53.562Z,12.52
2022-12-11T05:10:25.442Z,12.10
2022-12-11T05:11:03.554Z,12.65
2022-12-11T05:11:36.388Z,12.23
2022-12-11T05:12:07.960Z,12.85
2022-12-11T05:12:39.562Z,11.82
2022-12-11T05:13:11.127Z,11.80
2022-12-11T05:13:43.575Z,13.35
2022-12-11T05:14:15.150Z,11.95
2022-12-11T05:14:46.820Z,12.23
2022-12-11T05:15:18.448Z,11.88
2022-12-11T05:15:50.165Z,12.40
2022-12-11T05:16:21.881Z,11.85
2022-12-11T05:16:53.443Z,11.73
2022-12-11T05:17:25.034Z,12.00
2022-12-11T05:17:56.610Z,11.32
2022-12-11T05:18:28.168Z,10.57
2022-12-11T05:18:59.839Z,11.60
2022-12-11T05:19:31.451Z,11.68
2022-12-11T05:20:03.252Z,11.65
2022-12-11T05:20:34.858Z,11.75
2022-12-11T05:21:12.830Z,11.85
2022-12-11T05:21:44.560Z,10.50
2022-12-11T05:22:16.443Z,11.27
2022-12-11T05:22:48.060Z,11.32
2022-12-11T05:23:19.656Z,11.50
2022-12-11T05:23:51.213Z,12.15
2022-12-11T05:24:22.766Z,11.15
2022-12-11T05:24:54.318Z,11.07
2022-12-11T05:25:25.899Z,11.25
2022-12-11T05:26:00.631Z,11.25
2022-12-11T05:26:32.332Z,11.20
2022-12-11T05:27:03.972Z,11.35
2022-12-11T05:27:35.563Z,10.95
2022-12-11T05:28:07.115Z,10.70
2022-12-11T05:28:39.855Z,10.65
2022-12-11T05:29:11.418Z,11.63
2022-12-11T05:29:43.131Z,11.43
2022-12-11T05:30:14.694Z,11.48
2022-12-11T05:30:46.392Z,11.25
2022-12-11T05:31:20.168Z,11.50
2022-12-11T05:31:51.772Z,11.15
2022-12-11T05:32:23.377Z,10.68
2022-12-11T05:32:54.962Z,12.52
2022-12-11T05:33:28.082Z,11.38
2022-12-11T05:33:59.726Z,11.65
2022-12-11T05:34:31.337Z,11.48
2022-12-11T05:35:03.828Z,11.90
2022-12-11T05:35:35.401Z,11.18
2022-12-11T05:36:08.027Z,11.57
2022-12-11T05:36:40.240Z,11.50
2022-12-11T05:37:11.884Z,11.35
2022-12-11T05:37:43.508Z,11.90
2022-12-11T05:38:15.089Z,12.07
2022-12-11T05:38:47.011Z,11.00
2022-12-11T05:39:18.763Z,11.90
2022-12-11T05:39:50.355Z,11.32
2022-12-11T05:40:21.961Z,11.50
2022-12-11T05:41:05.954Z,11.85
2022-12-11T05:41:37.583Z,10.65
2022-12-11T05:42:09.129Z,12.38
2022-12-11T05:42:40.732Z,11.52
2022-12-11T05:43:12.320Z,12.15
2022-12-11T05:43:44.768Z,12.18
2022-12-11T05:44:16.315Z,11.88
2022-12-11T05:44:49.812Z,11.95
2022-12-11T05:45:21.400Z,11.40
2022-12-11T05:45:53.075Z,11.98
2022-12-11T05:46:29.972Z,11.25
2022-12-11T05:47:01.710Z,11.50
2022-12-11T05:47:33.314Z,11.70
2022-12-11T05:48:05.038Z,10.95
2022-12-11T05:48:37.151Z,10.95
2022-12-11T05:49:10.841Z,11.20
2022-12-11T05:49:43.466Z,11.40
2022-12-11T05:50:15.017Z,11.98
2022-12-11T05:50:56.839Z,12.32
2022-12-11T05:51:29.496Z,12.05
2022-12-11T05:52:01.093Z,12.05
2022-12-11T05:52:33.253Z,11.25
2022-12-11T05:53:05.419Z,12.10
2022-12-11T05:53:38.376Z,12.30
2022-12-11T05:54:10.658Z,11.80
2022-12-11T05:54:42.439Z,12.88
2022-12-11T05:55:14.089Z,11.02
2022-12-11T05:55:45.675Z,11.98
2022-12-11T05:56:24.407Z,11.68
2022-12-11T05:56:56.038Z,11.25
2022-12-11T05:57:27.682Z,11.40
2022-12-11T05:57:59.279Z,12.02
2022-12-11T05:58:31.033Z,11.48
2022-12-11T05:59:04.498Z,12.75
2022-12-11T05:59:36.039Z,11.25
2022-12-11T06:00:09.223Z,11.80
2022-12-11T06:00:43.862Z,12.10
2022-12-11T06:01:24.772Z,11.85
2022-12-11T06:01:56.454Z,11.73
2022-12-11T06:02:28.160Z,11.85
2022-12-11T06:03:00.000Z,12.90
2022-12-11T06:03:31.619Z,12.15
2022-12-11T06:04:05.433Z,12.07
2022-12-11T06:04:37.021Z,11.80
2022-12-11T06:05:08.859Z,11.32
2022-12-11T06:05:42.447Z,11.93
2022-12-11T06:06:14.666Z,12.10
2022-12-11T06:06:46.329Z,12.38
2022-12-11T06:07:17.929Z,11.93
2022-12-11T06:07:49.554Z,12.48
2022-12-11T06:08:21.183Z,11.30
2022-12-11T06:08:53.968Z,12.38
2022-12-11T06:09:25.528Z,12.20
2022-12-11T06:09:57.110Z,11.85
2022-12-11T06:10:28.657Z,12.57
2022-12-11T06:11:00.780Z,12.23
2022-12-11T06:11:34.054Z,12.55
2022-12-11T06:12:05.857Z,11.90
2022-12-11T06:12:37.441Z,11.63
2022-12-11T06:13:09.032Z,11.73
2022-12-11T06:13:40.846Z,12.13
2022-12-11T06:14:13.938Z,11.88
2022-12-11T06:14:45.943Z,12.73
2022-12-11T06:15:17.510Z,11.88
2022-12-11T06:15:49.515Z,11.95
2022-12-11T06:16:22.374Z,13.02
2022-12-11T06:16:54.042Z,12.02
2022-12-11T06:17:25.592Z,12.50
2022-12-11T06:17:57.221Z,12.68
2022-12-11T06:18:28.878Z,12.65
2022-12-11T06:19:00.524Z,12.65
2022-12-11T06:19:36.709Z,14.02
2022-12-11T06:20:09.093Z,12.25
2022-12-11T06:20:40.743Z,13.50
2022-12-11T06:21:16.241Z,13.50
2022-12-11T06:21:48.939Z,13.43
2022-12-11T06:22:20.520Z,13.27
2022-12-11T06:22:52.132Z,13.40
2022-12-11T06:23:24.164Z,12.55
2022-12-11T06:23:58.204Z,12.73
2022-12-11T06:24:29.787Z,12.73
2022-12-11T06:25:02.646Z,13.60
2022-12-11T06:25:34.635Z,13.48
2022-12-11T06:26:06.835Z,13.70
2022-12-11T06:26:38.479Z,13.00
2022-12-11T06:27:10.281Z,13.05
2022-12-11T06:27:41.864Z,13.20
2022-12-11T06:28:13.416Z,13.50
2022-12-11T06:28:45.809Z,13.57
2022-12-11T06:29:18.112Z,14.07
2022-12-11T06:29:49.696Z,13.27
2022-12-11T06:30:22.039Z,13.93
2022-12-11T06:31:10.337Z,12.55
2022-12-11T06:31:42.074Z,13.65
2022-12-11T06:32:13.701Z,13.63
2022-12-11T06:32:45.392Z,13.70
2022-12-11T06:33:16.970Z,13.35
2022-12-11T06:33:48.717Z,13.60
2022-12-11T06:34:20.257Z,12.85
2022-12-11T06:34:51.851Z,13.82
2022-12-11T06:35:23.677Z,13.30
2022-12-11T06:35:55.290Z,14.30
2022-12-11T06:36:26.837Z,12.88
2022-12-11T06:36:58.410Z,13.65
2022-12-11T06:37:29.964Z,13.07
2022-12-11T06:38:01.940Z,13.68
2022-12-11T06:38:33.643Z,12.68
2022-12-11T06:39:05.230Z,13.50
2022-12-11T06:39:36.882Z,13.50
2022-12-11T06:40:10.509Z,13.82
2022-12-11T06:40:42.119Z,13.02
2022-12-11T06:41:14.766Z,14.05
2022-12-11T06:41:46.407Z,13.63
2022-12-11T06:42:18.112Z,13.15
2022-12-11T06:42:49.790Z,13.73
2022-12-11T06:43:21.587Z,14.18
2022-12-11T06:43:53.337Z,13.90
2022-12-11T06:44:25.131Z,14.18
2022-12-11T06:44:59.733Z,14.63
2022-12-11T06:45:31.468Z,14.63
2022-12-11T06:46:05.185Z,14.43
2022-12-11T06:46:36.843Z,13.95
2022-12-11T06:47:08.518Z,12.98
2022-12-11T06:47:40.142Z,14.02
2022-12-11T06:48:11.683Z,13.73
2022-12-11T06:48:44.503Z,13.73
2022-12-11T06:49:16.134Z,13.18
2022-12-11T06:49:48.328Z,13.57
2022-12-11T06:50:19.879Z,14.48
2022-12-11T06:50:51.874Z,13.90
2022-12-11T06:51:23.650Z,12.57
2022-12-11T06:51:55.251Z,13.38
2022-12-11T06:52:30.182Z,13.48
2022-12-11T06:53:01.774Z,13.80
2022-12-11T06:53:33.501Z,12.85
2022-12-11T06:54:05.143Z,11.90
2022-12-11T06:54:36.744Z,11.43
2022-12-11T06:55:08.847Z,11.85
2022-12-11T06:55:41.742Z,11.63
2022-12-11T06:56:15.686Z,11.80
2022-12-11T06:56:47.387Z,11.70
2022-12-11T06:57:20.418Z,12.57
2022-12-11T06:57:51.958Z,12.90
2022-12-11T06:58:23.582Z,12.68
2022-12-11T06:58:57.090Z,11.55
2022-12-11T06:59:28.690Z,11.75
2022-12-11T07:00:00.267Z,12.00
2022-12-11T07:00:32.065Z,11.00
2022-12-11T07:01:05.302Z,11.18
2022-12-11T07:01:36.975Z,11.20
2022-12-11T07:02:14.362Z,10.93
2022-12-11T07:02:45.979Z,10.90
2022-12-11T07:03:17.601Z,10.82
2022-12-11T07:03:49.522Z,11.55
2022-12-11T07:04:24.693Z,10.90
2022-12-11T07:04:56.282Z,11.70
2022-12-11T07:05:28.196Z,10.35
2022-12-11T07:06:01.530Z,10.10
2022-12-11T07:06:33.139Z,10.68
2022-12-11T07:07:04.766Z,10.48
2022-12-11T07:07:36.376Z,10.18
2022-12-11T07:08:08.030Z,11.43
2022-12-11T07:08:40.142Z,10.85
2022-12-11T07:09:11.742Z,10.43
2022-12-11T07:09:43.489Z,11.00
2022-12-11T07:10:15.099Z,10.35
2022-12-11T07:10:46.683Z,10.57
2022-12-11T07:11:19.605Z,11.18
2022-12-11T07:11:51.929Z,9.43
2022-12-11T07:12:23.589Z,9.77
2022-12-11T07:12:55.255Z,10.52
2022-12-11T07:13:26.824Z,10.57
2022-12-11T07:14:01.558Z,9.75
2022-12-11T07:14:33.846Z,10.43
2022-12-11T07:15:06.090Z,9.75
2022-12-11T07:15:40.511Z,10.05
2022-12-11T07:16:14.060Z,10.27
2022-12-11T07:16:45.731Z,10.30
2022-12-11T07:17:17.326Z,9.90
2022-12-11T07:17:48.917Z,9.75
2022-12-11T07:18:20.563Z,10.02
2022-12-11T07:18:52.575Z,9.77
2022-12-11T07:19:24.775Z,9.57
2022-12-11T07:19:56.398Z,9.10
2022-12-11T07:20:28.073Z,9.73
2022-12-11T07:21:02.541Z,10.23
2022-12-11T07:21:34.158Z,9.20
2022-12-11T07:22:05.707Z,9.45
2022-12-11T07:22:41.650Z,10.00
2022-12-11T07:23:16.378Z,9.32
2022-12-11T07:23:48.880Z,8.82
2022-12-11T07:24:20.451Z,9.20
2022-12-11T07:24:51.992Z,8.95